Flight Track Log - Related Links

Times and Time Zones

All times are in EDT time to prevent confusion due to time zone crossing. See the EJA829P flight status page for this flight to view local times or setup timezone preferences in your user account.

Time Position Orientation Groundspeed Altitude Reporting Facility
EDT Latitude Longitude Course Direction KTS MPH feet Rate Location/Type
Tue 07:48:42 AM 41.0833 -73.7500 253° West 190 219 3,000  Level New York TRACON
Tue 07:49:42 AM 41.0667 -73.8333 255° West 261 300 5,800 3,450 Climbing New York TRACON
Tue 07:50:42 AM 41.0167 -73.9167 232° Southwest 289 333 9,900 3,850 Climbing New York TRACON
Tue 07:51:42 AM 40.9667 -74.0000 232° Southwest 307 353 13,500 2,550 Climbing New York TRACON
Tue 07:52:42 AM 40.9500 -74.1167 259° West 326 375 15,000 900 Climbing New York TRACON
Tue 07:53:42 AM 40.9333 -74.2333 259° West 344 396 15,300 1,000 Climbing New York TRACON
Tue 07:54:00 AM 40.9278 -74.3853 253° West  Level FlightAware Approximate
Tue 07:54:42 AM 40.9167 -74.3500 259° West 331 381 17,000  Level New York TRACON
Tue 07:55:50 AM 40.8903 -74.4986 257° West 355 409 17,100 47 Climbing New York Center
Tue 07:56:50 AM 40.8761 -74.6131 261° West 353 406 17,100 250 Level New York Center
Tue 07:57:50 AM 40.8569 -74.7519 260° West 353 406 17,600 850 Climbing New York Center
Tue 07:58:50 AM 40.8411 -74.8525 258° West 353 406 18,800 1,600 Climbing New York Center
Tue 07:59:50 AM 40.8214 -74.9939 260° West 353 406 20,800 1,850 Climbing New York Center
Tue 08:00:50 AM 40.8044 -75.1189 260° West 353 406 22,500 1,835 Climbing New York Center
Tue 08:01:51 AM 40.7825 -75.2628 259° West 358 412 24,500 1,950 Climbing New York Center
Tue 08:02:50 AM 40.7589 -75.3900 256° West 358 412 26,400 1,714 Climbing New York Center
Tue 08:03:50 AM 40.7256 -75.4944 247° West 353 406 27,900 1,350 Climbing New York Center
Tue 08:04:50 AM 40.6811 -75.6147 244° Southwest 359 413 29,100 1,339 Climbing New York Center
Tue 08:05:51 AM 40.6342 -75.7400 244° Southwest 371 427 30,600 1,500 Climbing New York Center
Tue 08:06:50 AM 40.5894 -75.8597 244° Southwest 381 438 32,100 1,613 Climbing New York Center
Tue 08:07:50 AM 40.5311 -76.0000 241° Southwest 387 445 33,800 950 Climbing New York Center
Tue 08:08:50 AM 40.4933 -76.1036 244° Southwest 387 445 34,000 100 Climbing New York Center
Tue 08:09:50 AM 40.4322 -76.2544 242° Southwest 392 451 34,000  Level New York Center
Tue 08:10:51 AM 40.3844 -76.3814 244° Southwest 397 457 34,000  Level New York Center
Tue 08:11:50 AM 40.3369 -76.5056 243° Southwest 390 449 34,000  Level New York Center
Tue 08:12:50 AM 40.2894 -76.6242 242° Southwest 384 442 34,000  Level New York Center
Tue 08:13:50 AM 40.2392 -76.7506 243° Southwest 384 442 34,000  Level New York Center
Tue 08:14:52 AM 40.2200 -76.8819 259° West 378 435 34,000  Level New York Center
Tue 08:15:50 AM 40.2161 -76.9931 267° West 375 432 34,000  Level New York Center
Tue 08:16:50 AM 40.2100 -77.1503 267° West 375 432 34,000  Level New York Center
Tue 08:19:00 AM 40.1994 -77.4417 267° West 373 429 34,000  Level Cleveland Center
Tue 08:20:02 AM 40.1939 -77.5736 267° West 371 427 34,000  Level Cleveland Center
Tue 08:21:03 AM 40.1892 -77.7072 267° West 370 426 34,000  Level Cleveland Center
Tue 08:22:05 AM 40.1833 -77.8394 267° West 369 425 34,000  Level Cleveland Center
Tue 08:23:07 AM 40.1767 -77.9714 266° West 368 423 34,000  Level Cleveland Center
Tue 08:24:09 AM 40.1714 -78.1039 267° West 368 423 34,000  Level Cleveland Center
Tue 08:25:11 AM 40.1644 -78.2614 267° West 367 422 34,000  Level Cleveland Center
Tue 08:26:13 AM 40.1586 -78.3925 267° West 367 422 34,000 -192 Level Cleveland Center
Tue 08:27:16 AM 40.1517 -78.5247 266° West 367 422 33,600 -1,113 Descending Cleveland Center
Tue 08:28:17 AM 40.1453 -78.6594 266° West 367 422 31,700 -1,756 Descending Cleveland Center
Tue 08:29:19 AM 40.1383 -78.7950 266° West 369 425 30,000 -823 Descending Cleveland Center
Tue 08:30:21 AM 40.1308 -78.9319 266° West 373 429 30,000  Level Cleveland Center
Tue 08:31:23 AM 40.1217 -79.1017 266° West 385 443 30,000  Level Cleveland Center
Tue 08:32:24 AM 40.1153 -79.2403 267° West 385 443 30,000  Level Cleveland Center
Tue 08:33:26 AM 40.1061 -79.3828 265° West 385 443 30,000  Level Cleveland Center
Tue 08:34:28 AM 40.0992 -79.5214 266° West 384 442 30,000  Level Cleveland Center
Tue 08:35:30 AM 40.0911 -79.6625 266° West 386 444 30,000  Level Cleveland Center
Tue 08:36:32 AM 40.0814 -79.8031 265° West 389 448 30,000  Level Cleveland Center
Tue 08:37:34 AM 40.0736 -79.9425 266° West 387 445 30,000  Level Cleveland Center
Tue 08:38:36 AM 40.0650 -80.0828 265° West 386 444 30,000  Level Cleveland Center
Tue 08:39:38 AM 40.0558 -80.2222 265° West 385 443 30,000 -194 Level Cleveland Center
Tue 08:40:40 AM 40.0447 -80.3908 265° West 384 442 29,600 -1,122 Descending Cleveland Center
Tue 08:41:41 AM 40.0361 -80.5275 265° West 379 436 27,700 -1,854 Descending Cleveland Center
Tue 08:42:43 AM 40.0264 -80.6631 265° West 377 434 25,800 -1,790 Descending Cleveland Center
Tue 08:43:45 AM 40.0178 -80.7953 265° West 365 420 24,000 -1,355 Descending Cleveland Center
Tue 08:44:47 AM 39.9964 -80.9225 258° West 363 418 23,000 -484 Descending Cleveland Center
Tue 08:45:49 AM 39.9711 -81.0511 256° West 361 415 23,000  Level Cleveland Center
Tue 08:46:51 AM 39.9464 -81.1778 256° West 361 415 23,000 -145 Level Cleveland Center
Tue 08:47:53 AM 39.9217 -81.3028 256° West 360 414 22,700 -1,065 Descending Cleveland Center
Tue 08:48:55 AM 39.8969 -81.4344 256° West 353 406 20,800 -1,805 Descending Cleveland Center
Tue 08:49:56 AM 39.8742 -81.5500 256° West 333 383 19,000 -1,659 Descending Cleveland Center
Tue 08:50:58 AM 39.8514 -81.6611 255° West 324 373 17,400 -1,742 Descending Cleveland Center
Tue 08:52:00 AM 39.8250 -81.7908 255° West 314 361 15,400 -1,742 Descending Cleveland Center
Tue 08:53:02 AM 39.8036 -81.8969 255° West 304 350 13,800 -1,660 Descending Cleveland Center
Tue 08:53:34 AM 39.7925 -81.9567 256° West 294 338 12,800 -1,607 Descending Indianapolis Center
Tue 08:53:58 AM 39.7828 -81.9961 252° West 290 334 12,300 -1,200 Descending Indianapolis Center
Tue 08:54:29 AM 39.7764 -82.0372 259° West 292 336 11,700 -1,527 Descending Indianapolis Center
Tue 08:54:53 AM 39.7644 -82.0858 252° West 281 323 10,900 -1,475 Descending Indianapolis Center
Tue 08:55:30 AM 39.7753 -82.1339 286° West 275 316 10,200 -900 Descending Indianapolis Center
Tue 08:55:53 AM 39.7875 -82.1817 288° West 279 321 10,000 -194 Descending Indianapolis Center
Tue 08:56:32 AM 39.7989 -82.2314 287° West 278 320 10,000  Level Indianapolis Center
Tue 08:56:54 AM 39.8100 -82.2803 286° West 285 328 10,000  Level Indianapolis Center
Tue 08:57:34 AM 39.8217 -82.3303 287° West 283 326 10,000  Level Indianapolis Center
Tue 08:57:55 AM 39.8306 -82.3786 283° West 285 328 10,000  Level Indianapolis Center
Tue 08:58:36 AM 39.8428 -82.4281 288° West 283 326 10,000  Level Indianapolis Center
Tue 08:58:56 AM 39.8533 -82.4775 286° West 283 326 10,000 -1,065 Level Indianapolis Center
Tue 08:59:38 AM 39.8708 -82.5375 291° West 274 315 8,900 -1,701 Descending Indianapolis Center
Tue 09:00:03 AM 39.8775 -82.5792 282° West 250 288 8,100 -1,742 Descending Indianapolis Center
Tue 09:00:40 AM 39.8900 -82.6217 291° West 254 292 7,100 -1,745 Descending Indianapolis Center
Tue 09:00:58 AM 39.8936 -82.6553 278° West 238 274 6,500 -1,082 Descending Indianapolis Center
Tue 09:01:41 AM 39.9022 -82.7064 282° West 246 283 6,000 -492 Descending Indianapolis Center
Tue 09:01:59 AM 39.9044 -82.7417 275° West 242 278 6,000  Level Indianapolis Center
Tue 09:02:43 AM 39.9100 -82.7922 278° West 244 281 6,000  Level Indianapolis Center
Tue 09:03:00 AM 39.9150 -82.8306 280° West 244 281 6,000  Level Indianapolis Center
Tue 09:03:45 AM 39.9197 -82.8800 277° West 244 281 6,000 -197 Level Indianapolis Center
Tue 09:04:01 AM 39.9217 -82.9161 274° West 236 272 5,800 -1,452 Descending Indianapolis Center
Tue 09:04:47 AM 39.9303 -82.9758 281° West 235 270 4,500 -1,545 Descending Indianapolis Center
Tue 09:05:07 AM 39.9347 -83.0000 283° West 194 223 4,100 -484 Descending Indianapolis Center
Tue 09:05:49 AM 39.9425 -83.0397 284° West 203 234 4,000 -492 Descending Indianapolis Center
Tue 09:06:08 AM 39.9633 -83.0539 332° Northwest 209 241 3,600 -1,161 Descending Indianapolis Center
Tue 09:06:51 AM 40.0019 -83.0392 16° North 227 261 2,800 -984 Descending Indianapolis Center
Tue 09:07:09 AM 40.0114 -83.0125 65° Northeast 237 273 2,600 -774 Descending Indianapolis Center
Tue 09:07:53 AM 40.0081 -82.9708 96° East 209 241 2,000 -984 Descending Indianapolis Center
Tue 09:08:10 AM 40.0044 -82.9514 104° East 152 175 1,600 -871 Descending Indianapolis Center
Tue 09:08:55 AM 40.0036 -82.9208 92° East 170 196 1,100 -336 Descending Indianapolis Center
Tue 09:09:57 AM 40.0000 -82.8847 97° East 157 181 1,000 -97 Descending Indianapolis Center

Login

Don't have an account? Register now (free) for customized features, flight alerts, and more!